createdAt,value
2019-04-05T00:00:47.622Z,99277.67
2019-04-05T00:03:19.488Z,99280.08
2019-04-05T00:05:51.444Z,99282.80
2019-04-05T00:08:24.349Z,99283.29
2019-04-05T00:10:56.608Z,99285.83
2019-04-05T00:13:28.436Z,99283.17
2019-04-05T00:16:00.372Z,99280.69
2019-04-05T00:18:32.245Z,99290.26
2019-04-05T00:21:04.702Z,99279.49
2019-04-05T00:23:35.887Z,99279.95
2019-04-05T00:26:07.671Z,99288.17
2019-04-05T00:28:39.652Z,99287.87
2019-04-05T00:31:11.624Z,99277.86
2019-04-05T00:33:43.576Z,99279.23
2019-04-05T00:36:15.532Z,99284.35
2019-04-05T00:38:46.708Z,99283.61
2019-04-05T00:41:17.852Z,99288.45
2019-04-05T00:43:49.580Z,99284.01
2019-04-05T00:46:21.464Z,99292.40
2019-04-05T00:48:53.320Z,99292.32
2019-04-05T00:51:25.374Z,99298.61
2019-04-05T00:53:57.348Z,99297.58
2019-04-05T00:56:29.237Z,99298.30
2019-04-05T00:59:01.097Z,99299.63
2019-04-05T01:01:33.496Z,99299.12
2019-04-05T01:04:05.416Z,99308.66
2019-04-05T01:06:37.228Z,99309.13
2019-04-05T01:09:09.414Z,99308.59
2019-04-05T01:11:40.786Z,99312.91
2019-04-05T01:14:12.068Z,99316.77
2019-04-05T01:16:45.344Z,99310.94
2019-04-05T01:19:17.546Z,99319.28
2019-04-05T01:21:51.212Z,99317.47
2019-04-05T01:24:24.454Z,99322.73
2019-04-05T01:26:59.232Z,99323.04
2019-04-05T01:29:31.136Z,99327.34
2019-04-05T01:32:02.930Z,99327.09
2019-04-05T01:34:34.155Z,99329.27
2019-04-05T01:37:05.988Z,99335.20
2019-04-05T01:39:37.847Z,99331.43
2019-04-05T01:42:09.673Z,99332.03
2019-04-05T01:44:42.153Z,99333.98
2019-04-05T01:47:13.321Z,99341.56
2019-04-05T01:49:45.127Z,99342.27
2019-04-05T01:52:17.151Z,99345.59
2019-04-05T01:54:49.058Z,99344.25
2019-04-05T01:57:20.254Z,99348.58
2019-04-05T01:59:52.177Z,99348.02
2019-04-05T02:02:24.219Z,99347.67
2019-04-05T02:04:56.219Z,99348.48
2019-04-05T02:07:28.048Z,99352.09
2019-04-05T02:10:00.683Z,99344.11
2019-04-05T02:12:32.475Z,99352.09
2019-04-05T02:15:04.722Z,99349.50
2019-04-05T02:17:36.613Z,99350.52
2019-04-05T02:20:09.094Z,99353.68
2019-04-05T02:22:40.891Z,99347.88
2019-04-05T02:25:12.725Z,99355.28
2019-04-05T02:27:43.899Z,99354.80
2019-04-05T02:30:15.580Z,99363.86
2019-04-05T02:32:46.791Z,99365.05
2019-04-05T02:35:18.063Z,99364.91
2019-04-05T02:37:49.840Z,99364.38
2019-04-05T02:40:23.652Z,99365.77
2019-04-05T02:42:57.739Z,99361.41
2019-04-05T02:45:34.512Z,99363.39
2019-04-05T02:48:10.498Z,99362.23
2019-04-05T02:50:47.635Z,99372.58
2019-04-05T02:53:22.115Z,99380.92
2019-04-05T02:55:53.991Z,99377.24
2019-04-05T02:58:27.008Z,99382.66
2019-04-05T03:00:59.644Z,99380.11
2019-04-05T03:03:31.658Z,99383.43
2019-04-05T03:06:03.831Z,99402.73
2019-04-05T03:08:36.180Z,99410.38
2019-04-05T03:11:11.888Z,99412.56
2019-04-05T03:13:50.498Z,99411.36
2019-04-05T03:16:40.238Z,99411.11
2019-04-05T03:19:22.169Z,99418.17
2019-04-05T03:22:00.697Z,99417.80
2019-04-05T03:24:37.139Z,99420.03
2019-04-05T03:27:14.420Z,99418.42
2019-04-05T03:29:47.486Z,99423.48
2019-04-05T03:32:19.653Z,99423.70
2019-04-05T03:34:52.380Z,99429.74
2019-04-05T03:37:25.391Z,99423.93
2019-04-05T03:39:58.329Z,99431.89
2019-04-05T03:42:31.516Z,99438.83
2019-04-05T03:45:03.365Z,99447.59
2019-04-05T03:47:35.358Z,99457.52
2019-04-05T03:50:07.306Z,99458.27
2019-04-05T03:52:40.225Z,99461.66
2019-04-05T03:55:12.199Z,99474.30
2019-04-05T03:57:44.727Z,99483.02
2019-04-05T04:00:16.719Z,99478.23
2019-04-05T04:02:54.081Z,99484.63
2019-04-05T04:05:25.871Z,99485.14
2019-04-05T04:07:58.116Z,99490.11
2019-04-05T04:10:31.105Z,99490.71
2019-04-05T04:13:03.608Z,99494.57
2019-04-05T04:15:36.306Z,99500.05
2019-04-05T04:18:08.596Z,99510.64
2019-04-05T04:20:49.560Z,99514.31
2019-04-05T04:23:25.194Z,99520.23
2019-04-05T04:25:58.794Z,99518.66
2019-04-05T04:28:31.542Z,99518.89
2019-04-05T04:31:06.850Z,99518.59
2019-04-05T04:33:42.479Z,99521.91
2019-04-05T04:36:15.690Z,99530.91
2019-04-05T04:38:47.358Z,99528.91
2019-04-05T04:41:18.525Z,99534.86
2019-04-05T04:43:51.935Z,99534.28
2019-04-05T04:46:24.535Z,99539.45
2019-04-05T04:48:56.974Z,99545.59
2019-04-05T04:51:28.547Z,99540.08
2019-04-05T04:54:00.090Z,99537.73
2019-04-05T04:56:31.594Z,99538.36
2019-04-05T04:59:03.505Z,99549.50
2019-04-05T05:01:35.448Z,99564.14
2019-04-05T05:04:08.443Z,99560.52
2019-04-05T05:06:40.550Z,99567.16
2019-04-05T05:09:13.965Z,99569.88
2019-04-05T05:11:45.899Z,99575.03
2019-04-05T05:14:18.589Z,99586.83
2019-04-05T05:16:50.068Z,99593.97
2019-04-05T05:19:22.022Z,99599.53
2019-04-05T05:21:54.797Z,99600.60
2019-04-05T05:24:27.004Z,99606.45
2019-04-05T05:26:58.242Z,99607.24
2019-04-05T05:29:30.574Z,99611.77
2019-04-05T05:32:01.953Z,99618.39
2019-04-05T05:34:34.230Z,99621.31
2019-04-05T05:37:06.394Z,99618.95
2019-04-05T05:39:37.574Z,99621.38
2019-04-05T05:42:09.916Z,99631.28
2019-04-05T05:44:41.122Z,99623.31
2019-04-05T05:47:12.262Z,99627.92
2019-04-05T05:49:43.435Z,99632.62
2019-04-05T05:52:15.357Z,99633.41
2019-04-05T05:54:46.509Z,99631.68
2019-04-05T05:57:18.269Z,99641.94
2019-04-05T05:59:50.125Z,99642.67
2019-04-05T06:02:22.063Z,99639.42
2019-04-05T06:04:53.972Z,99647.19
2019-04-05T06:07:25.882Z,99652.16
2019-04-05T06:09:57.045Z,99651.01
2019-04-05T06:12:28.274Z,99658.72
2019-04-05T06:15:00.044Z,99658.26
2019-04-05T06:17:31.924Z,99650.69
2019-04-05T06:20:03.918Z,99648.81
2019-04-05T06:22:35.801Z,99654.06
2019-04-05T06:25:08.394Z,99660.63
2019-04-05T06:27:40.705Z,99662.12
2019-04-05T06:30:11.958Z,99665.42
2019-04-05T06:32:43.857Z,99662.22
2019-04-05T06:35:15.836Z,99655.45
2019-04-05T06:37:47.769Z,99662.36
2019-04-05T06:40:20.714Z,99667.16
2019-04-05T06:42:52.552Z,99673.17
2019-04-05T06:45:24.468Z,99678.58
2019-04-05T06:47:56.426Z,99672.21
2019-04-05T06:50:28.348Z,99678.25
2019-04-05T06:53:00.249Z,99674.27
2019-04-05T06:55:31.488Z,99673.63
2019-04-05T06:58:02.635Z,99678.55
2019-04-05T07:00:34.676Z,99682.80
2019-04-05T07:03:06.541Z,99682.52
2019-04-05T07:05:37.741Z,99681.78
2019-04-05T07:08:09.549Z,99680.63
2019-04-05T07:10:41.420Z,99684.82
2019-04-05T07:13:13.267Z,99687.87
2019-04-05T07:15:45.236Z,99693.25
2019-04-05T07:18:17.044Z,99697.08
2019-04-05T07:20:48.916Z,99695.75
2019-04-05T07:23:20.825Z,99700.05
2019-04-05T07:25:52.684Z,99709.23
2019-04-05T07:28:25.271Z,99711.80
2019-04-05T07:30:57.396Z,99708.52
2019-04-05T07:33:29.270Z,99709.82
2019-04-05T07:36:03.361Z,99711.16
2019-04-05T07:38:33.964Z,99709.56
2019-04-05T07:41:05.879Z,99714.61
2019-04-05T07:43:40.738Z,99717.43
2019-04-05T07:46:12.617Z,99718.01
2019-04-05T07:48:45.346Z,99726.53
2019-04-05T07:51:17.447Z,99728.41
2019-04-05T07:53:48.716Z,99723.69
2019-04-05T07:56:20.678Z,99727.40
2019-04-05T07:58:52.740Z,99728.50
2019-04-05T08:01:24.748Z,99737.56
2019-04-05T08:03:58.039Z,99735.38
2019-04-05T08:06:32.375Z,99745.80
2019-04-05T08:09:15.909Z,99740.84
2019-04-05T08:11:49.100Z,99739.45
2019-04-05T08:14:22.049Z,99741.09
2019-04-05T08:16:53.936Z,99744.48
2019-04-05T08:19:25.805Z,99750.16
2019-04-05T08:21:57.692Z,99753.31
2019-04-05T08:24:29.570Z,99755.91
2019-04-05T08:27:01.396Z,99756.56
2019-04-05T08:29:33.262Z,99756.38
2019-04-05T08:32:14.370Z,99754.12
2019-04-05T08:34:38.666Z,99755.17
2019-04-05T08:37:10.607Z,99760.35
2019-04-05T08:39:42.526Z,99760.47
2019-04-05T08:42:14.491Z,99763.17
2019-04-05T08:44:46.312Z,99761.44
2019-04-05T08:47:18.129Z,99760.22
2019-04-05T08:49:50.026Z,99763.78
2019-04-05T08:52:21.860Z,99761.84
2019-04-05T08:54:53.717Z,99758.06
2019-04-05T08:57:24.872Z,99761.14
2019-04-05T08:59:56.708Z,99754.12
2019-04-05T09:02:28.516Z,99749.18
2019-04-05T09:05:00.401Z,99748.02
2019-04-05T09:07:32.332Z,99753.46
2019-04-05T09:10:04.424Z,99757.58
2019-04-05T09:12:36.344Z,99756.05
2019-04-05T09:15:08.340Z,99743.33
2019-04-05T09:17:40.196Z,99743.00
2019-04-05T09:20:12.481Z,99745.02
2019-04-05T09:22:44.525Z,99750.17
2019-04-05T09:25:16.379Z,99750.56
2019-04-05T09:27:47.595Z,99749.37
2019-04-05T09:30:19.284Z,99747.08
2019-04-05T09:32:51.159Z,99750.20
2019-04-05T09:35:23.032Z,99745.36
2019-04-05T09:37:55.048Z,99745.80
2019-04-05T09:40:26.927Z,99745.86
2019-04-05T09:42:59.817Z,99745.99
2019-04-05T09:45:31.750Z,99745.53
2019-04-05T09:48:03.713Z,99744.86
2019-04-05T09:50:35.673Z,99744.59
2019-04-05T09:53:07.485Z,99741.34
2019-04-05T09:55:38.759Z,99745.19
2019-04-05T09:58:10.520Z,99741.61
2019-04-05T10:00:42.362Z,99745.33
2019-04-05T10:03:14.160Z,99738.45
2019-04-05T10:05:45.402Z,99695.18
2019-04-05T10:08:17.134Z,99745.05
2019-04-05T10:10:49.197Z,99743.25
2019-04-05T10:13:21.099Z,99745.45
2019-04-05T10:15:53.047Z,99741.87
2019-04-05T10:18:24.932Z,99741.70
2019-04-05T10:20:56.859Z,99746.25
2019-04-05T10:23:28.788Z,99740.78
2019-04-05T10:26:00.022Z,99744.63
2019-04-05T10:28:31.796Z,99742.12
2019-04-05T10:31:03.742Z,99733.73
2019-04-05T10:33:35.667Z,99736.66
2019-04-05T10:36:07.595Z,99725.48
2019-04-05T10:38:39.497Z,99729.39
2019-04-05T10:41:11.431Z,99723.11
2019-04-05T10:43:47.756Z,99725.29
2019-04-05T10:46:19.787Z,99729.27
2019-04-05T10:48:51.787Z,99726.05
2019-04-05T10:51:26.207Z,99727.05
2019-04-05T10:54:00.519Z,99722.50
2019-04-05T10:56:32.491Z,99719.71
2019-04-05T10:59:04.524Z,99713.09
2019-04-05T11:01:40.807Z,99712.75
2019-04-05T11:04:12.655Z,99712.20
2019-04-05T11:06:44.531Z,99715.81
2019-04-05T11:09:16.549Z,99719.89
2019-04-05T11:11:48.507Z,99717.89
2019-04-05T11:14:20.486Z,99721.93
2019-04-05T11:16:58.270Z,99717.19
2019-04-05T11:19:25.358Z,99713.14
2019-04-05T11:21:57.101Z,99707.20
2019-04-05T11:24:29.116Z,99709.19
2019-04-05T11:27:01.620Z,99708.88
2019-04-05T11:29:33.368Z,99704.73
2019-04-05T11:32:08.416Z,99711.84
2019-04-05T11:34:43.152Z,99709.64
2019-04-05T11:37:16.854Z,99710.67
2019-04-05T11:39:48.752Z,99707.58
2019-04-05T11:42:26.031Z,99709.81
2019-04-05T11:45:03.627Z,99715.00
2019-04-05T11:47:39.290Z,99715.64
2019-04-05T11:50:12.174Z,99714.05
2019-04-05T11:52:45.730Z,99715.00
2019-04-05T11:55:18.431Z,99708.92
2019-04-05T11:57:49.906Z,99709.39
2019-04-05T12:00:26.732Z,99699.28
2019-04-05T12:03:02.068Z,99700.62
2019-04-05T12:05:33.351Z,99697.46
2019-04-05T12:08:06.934Z,99697.48
2019-04-05T12:10:38.431Z,99700.72
2019-04-05T12:13:10.290Z,99698.89
2019-04-05T12:15:42.216Z,99703.36
2019-04-05T12:18:19.471Z,99701.25
2019-04-05T12:20:55.448Z,99704.22
2019-04-05T12:23:21.382Z,99700.70
2019-04-05T12:25:54.680Z,99698.85
2019-04-05T12:28:26.814Z,99697.62
2019-04-05T12:30:58.703Z,99698.60
2019-04-05T12:33:30.588Z,99691.33
2019-04-05T12:36:02.586Z,99693.00
2019-04-05T12:38:34.377Z,99688.26
2019-04-05T12:41:10.697Z,99689.57
2019-04-05T12:43:43.676Z,99686.27
2019-04-05T12:46:15.879Z,99677.17
2019-04-05T12:48:46.718Z,99673.37
2019-04-05T12:51:18.591Z,99677.07
2019-04-05T12:53:49.890Z,99671.31
2019-04-05T12:56:21.726Z,99674.31
2019-04-05T12:58:55.716Z,99667.29
2019-04-05T13:01:27.154Z,99672.05
2019-04-05T13:03:59.028Z,99668.20
2019-04-05T13:06:30.857Z,99668.55
2019-04-05T13:09:05.419Z,99661.02
2019-04-05T13:11:36.438Z,99661.30
2019-04-05T13:14:08.320Z,99659.03
2019-04-05T13:16:40.167Z,99646.86
2019-04-05T13:19:12.082Z,99651.00
2019-04-05T13:21:43.923Z,99651.87
2019-04-05T13:24:15.782Z,99656.20
2019-04-05T13:26:47.607Z,99649.16
2019-04-05T13:29:19.666Z,99644.13
2019-04-05T13:31:52.072Z,99643.75
2019-04-05T13:34:25.645Z,99631.98
2019-04-05T13:36:56.746Z,99633.47
2019-04-05T13:39:29.692Z,99632.12
2019-04-05T13:42:02.498Z,99626.36
2019-04-05T13:44:34.358Z,99627.80
2019-04-05T13:47:06.526Z,99626.07
2019-04-05T13:49:40.766Z,99627.86
2019-04-05T13:52:12.926Z,99626.14
2019-04-05T13:54:44.950Z,99624.69
2019-04-05T13:57:16.173Z,99621.17
2019-04-05T13:59:48.070Z,99611.11
2019-04-05T14:02:21.158Z,99612.97
2019-04-05T14:04:54.329Z,99618.32
2019-04-05T14:07:27.070Z,99613.94
2019-04-05T14:09:58.804Z,99612.86
2019-04-05T14:12:31.430Z,99614.24
2019-04-05T14:15:02.549Z,99615.58
2019-04-05T14:17:34.433Z,99618.38
2019-04-05T14:20:09.074Z,99606.16
2019-04-05T14:22:40.966Z,99616.91
2019-04-05T14:25:13.568Z,99613.79
2019-04-05T14:27:44.802Z,99620.03
2019-04-05T14:30:17.273Z,99633.33
2019-04-05T14:32:51.130Z,99633.05
2019-04-05T14:35:24.376Z,99624.53
2019-04-05T14:37:55.666Z,99631.19
2019-04-05T14:40:29.394Z,99625.45
2019-04-05T14:43:01.206Z,99625.93
2019-04-05T14:45:33.081Z,99622.30
2019-04-05T14:48:05.145Z,99622.26
2019-04-05T14:50:36.992Z,99620.83
2019-04-05T14:53:08.885Z,99619.48
2019-04-05T14:55:40.675Z,99615.52
2019-04-05T14:58:12.585Z,99613.13
2019-04-05T15:00:47.091Z,99606.00
2019-04-05T15:03:18.029Z,99606.81
2019-04-05T15:05:50.049Z,99614.64
2019-04-05T15:08:23.347Z,99610.14
2019-04-05T15:10:58.407Z,99605.16
2019-04-05T15:13:31.853Z,99611.46
2019-04-05T15:16:03.865Z,99607.23
2019-04-05T15:18:39.021Z,99612.77
2019-04-05T15:21:14.570Z,99619.61
2019-04-05T15:23:46.826Z,99614.49
2019-04-05T15:26:21.355Z,99614.94
2019-04-05T15:28:55.776Z,99608.73
2019-04-05T15:31:30.416Z,99618.22
2019-04-05T15:34:08.045Z,99617.00
2019-04-05T15:36:41.858Z,99613.89
2019-04-05T15:39:46.488Z,99614.20
2019-04-05T15:41:57.226Z,99610.78
2019-04-05T15:44:37.211Z,99619.48
2019-04-05T15:47:13.686Z,99628.03
2019-04-05T15:49:51.532Z,99620.27
2019-04-05T15:52:21.741Z,99628.75
2019-04-05T15:54:57.047Z,99632.17
2019-04-05T15:57:34.418Z,99637.13
2019-04-05T16:00:10.396Z,99643.69
2019-04-05T16:02:43.067Z,99641.63
2019-04-05T16:05:16.731Z,99640.56
2019-04-05T16:07:48.698Z,99642.77
2019-04-05T16:10:19.907Z,99642.41
2019-04-05T16:12:51.167Z,99644.74
2019-04-05T16:15:23.097Z,99644.93
2019-04-05T16:17:55.065Z,99643.41
2019-04-05T16:20:27.047Z,99646.58
2019-04-05T16:22:58.888Z,99653.30
2019-04-05T16:25:31.009Z,99650.84
2019-04-05T16:28:02.972Z,99648.66
2019-04-05T16:30:35.723Z,99652.22
2019-04-05T16:33:07.508Z,99655.53
2019-04-05T16:35:38.777Z,99653.24
2019-04-05T16:38:10.892Z,99652.28
2019-04-05T16:40:42.890Z,99653.34
2019-04-05T16:43:14.768Z,99652.38
2019-04-05T16:45:46.816Z,99653.34
2019-04-05T16:48:19.788Z,99654.11
2019-04-05T16:50:51.969Z,99651.82
2019-04-05T16:53:24.897Z,99654.58
2019-04-05T16:55:56.954Z,99653.46
2019-04-05T16:58:29.026Z,99650.97
2019-04-05T17:01:01.304Z,99651.82
2019-04-05T17:03:33.429Z,99649.64
2019-04-05T17:06:06.589Z,99658.13
2019-04-05T17:08:37.947Z,99654.95
2019-04-05T17:11:10.970Z,99653.92
2019-04-05T17:13:43.020Z,99652.95
2019-04-05T17:16:15.161Z,99656.59
2019-04-05T17:18:47.312Z,99658.66
2019-04-05T17:21:19.236Z,99659.98
2019-04-05T17:23:50.520Z,99663.03
2019-04-05T17:26:22.421Z,99661.39
2019-04-05T17:28:54.419Z,99662.30
2019-04-05T17:31:25.660Z,99670.70
2019-04-05T17:33:57.628Z,99666.05
2019-04-05T17:36:30.575Z,99668.26
2019-04-05T17:39:01.898Z,99671.42
2019-04-05T17:41:35.679Z,99675.03
2019-04-05T17:44:07.789Z,99677.31
2019-04-05T17:46:39.171Z,99677.55
2019-04-05T17:49:10.486Z,99681.08
2019-04-05T17:51:43.016Z,99679.59
2019-04-05T17:54:19.894Z,99684.42
2019-04-05T17:56:53.633Z,99687.41
2019-04-05T17:59:28.066Z,99688.00
2019-04-05T18:01:59.364Z,99692.70
2019-04-05T18:04:30.663Z,99694.05
2019-04-05T18:07:02.561Z,99699.58
2019-04-05T18:09:34.604Z,99702.63
2019-04-05T18:12:05.885Z,99700.62
2019-04-05T18:14:37.059Z,99699.72
2019-04-05T18:17:08.251Z,99705.95
2019-04-05T18:19:40.204Z,99708.91
2019-04-05T18:22:11.609Z,99700.91
2019-04-05T18:24:43.413Z,99704.75
2019-04-05T18:27:15.393Z,99705.09
2019-04-05T18:29:46.799Z,99715.12
2019-04-05T18:32:18.021Z,99712.46
2019-04-05T18:34:49.167Z,99706.84
2019-04-05T18:37:20.622Z,99711.23
2019-04-05T18:39:53.199Z,99707.50
2019-04-05T18:42:27.247Z,99708.44
2019-04-05T18:44:59.140Z,99710.03
2019-04-05T18:47:31.015Z,99707.05
2019-04-05T18:50:03.477Z,99711.20
2019-04-05T18:52:35.649Z,99712.26
2019-04-05T18:55:07.006Z,99714.06
2019-04-05T19:15:26.973Z,99731.14
2019-04-05T19:17:59.023Z,99729.74
2019-04-05T19:20:30.527Z,99734.13
2019-04-05T19:23:01.855Z,99729.59
2019-04-05T19:25:36.096Z,99733.73
2019-04-05T19:28:07.584Z,99737.19
2019-04-05T19:49:48.316Z,99725.98
2019-04-05T19:52:08.935Z,99729.02
2019-04-05T19:55:09.530Z,99729.80
2019-04-05T19:57:43.434Z,99727.33
2019-04-05T20:00:15.075Z,99733.97
2019-04-05T20:02:53.715Z,99735.57
2019-04-05T20:05:30.770Z,99740.84
2019-04-05T20:08:06.165Z,99745.95
2019-04-05T20:10:37.491Z,99754.53
2019-04-05T20:13:10.037Z,99757.98
2019-04-05T20:15:44.137Z,99758.84
2019-04-05T20:18:16.955Z,99750.41
2019-04-05T20:20:53.609Z,99755.69
2019-04-05T20:23:21.407Z,99749.64
2019-04-05T20:25:53.022Z,99755.00
2019-04-05T20:28:24.259Z,99755.44
2019-04-05T20:30:56.139Z,99752.73
2019-04-05T20:33:28.197Z,99751.52
2019-04-05T20:35:59.633Z,99757.42
2019-04-05T20:38:30.914Z,99756.09
2019-04-05T20:41:03.115Z,99764.17
2019-04-05T20:43:34.598Z,99765.44
2019-04-05T20:46:06.740Z,99761.72
2019-04-05T20:48:38.737Z,99762.84
2019-04-05T20:51:10.686Z,99766.09
2019-04-05T20:53:42.686Z,99762.70
2019-04-05T20:56:14.782Z,99764.78
2019-04-05T20:58:46.710Z,99760.69
2019-04-05T21:01:18.014Z,99761.97
2019-04-05T21:03:54.611Z,99759.52
2019-04-05T21:06:30.332Z,99763.78
2019-04-05T21:09:07.641Z,99758.31
2019-04-05T21:11:41.461Z,99766.16
2019-04-05T21:14:13.273Z,99768.06
2019-04-05T21:16:45.062Z,99769.44
2019-04-05T21:19:18.822Z,99771.56
2019-04-05T21:21:52.014Z,99777.14
2019-04-05T21:24:35.550Z,99775.48
2019-04-05T21:26:58.369Z,99777.14
2019-04-05T21:29:29.820Z,99773.97
2019-04-05T21:32:02.043Z,99769.96
2019-04-05T21:34:34.178Z,99781.08
2019-04-05T21:37:06.535Z,99782.25
2019-04-05T21:39:38.974Z,99786.38
2019-04-05T21:42:10.410Z,99792.50
2019-04-05T21:44:41.660Z,99791.69
2019-04-05T21:47:13.647Z,99790.41
2019-04-05T21:49:45.192Z,99792.92
2019-04-05T21:52:17.322Z,99790.06
2019-04-05T21:54:49.522Z,99799.20
2019-04-05T21:57:20.882Z,99794.47
2019-04-05T21:59:53.134Z,99804.64
2019-04-05T22:02:24.498Z,99798.41
2019-04-05T22:04:56.513Z,99802.27
2019-04-05T22:07:28.421Z,99803.52
2019-04-05T22:10:00.329Z,99813.92
2019-04-05T22:12:33.546Z,99806.09
2019-04-05T22:15:04.800Z,99807.33
2019-04-05T22:17:37.747Z,99803.58
2019-04-05T22:20:09.262Z,99812.67
2019-04-05T22:22:40.409Z,99808.88
2019-04-05T22:25:11.693Z,99809.92
2019-04-05T22:27:43.459Z,99810.50
2019-04-05T22:30:15.309Z,99810.55
2019-04-05T22:32:47.748Z,99809.92
2019-04-05T22:35:18.913Z,99813.39
2019-04-05T22:37:53.379Z,99812.98
2019-04-05T22:40:25.325Z,99819.03
2019-04-05T22:42:56.513Z,99818.42
2019-04-05T22:45:28.448Z,99822.90
2019-04-05T22:48:00.373Z,99825.06
2019-04-05T22:50:32.261Z,99818.23
2019-04-05T22:53:04.114Z,99815.77
2019-04-05T22:55:36.061Z,99815.98
2019-04-05T22:58:07.876Z,99818.76
2019-04-05T23:00:39.070Z,99816.32
2019-04-05T23:03:15.231Z,99822.90
2019-04-05T23:05:48.297Z,99826.09
2019-04-05T23:08:20.241Z,99826.73
2019-04-05T23:10:52.114Z,99822.47
2019-04-05T23:13:23.375Z,99823.83
2019-04-05T23:15:57.141Z,99824.53
2019-04-05T23:18:28.913Z,99828.33
2019-04-05T23:21:00.781Z,99828.69
2019-04-05T23:23:32.696Z,99826.63
2019-04-05T23:26:03.945Z,99837.29
2019-04-05T23:28:35.069Z,99829.77
2019-04-05T23:31:07.089Z,99825.84
2019-04-05T23:33:38.281Z,99845.02
2019-04-05T23:36:10.120Z,99849.09
2019-04-05T23:38:42.012Z,99840.98
2019-04-05T23:41:13.997Z,99853.05
2019-04-05T23:43:45.197Z,99854.44
2019-04-05T23:46:17.069Z,99856.84
2019-04-05T23:48:48.924Z,99850.06
2019-04-05T23:51:20.773Z,99857.23
2019-04-05T23:53:52.665Z,99856.70
2019-04-05T23:56:24.636Z,99858.73
2019-04-05T23:58:55.897Z,99856.03
